Flight Track Log - Related Links

Times and Time Zones

All times are in EDT time to prevent confusion due to time zone crossing. See the GGA1 flight status page for this flight to view local times or setup timezone preferences in your user account.

Time Position Orientation Groundspeed Altitude Reporting Facility
EDT Latitude Longitude Course Direction KTS MPH feet Rate Location/Type
Sun 01:36:51 PM 33.9167 -83.3000 151° Southeast 159 183 2,200  Level Atlanta TRACON
Sun 01:38:04 PM 33.8650 -83.2783 161° South 175 201 4,100 1,612 Climbing Atlanta Center
Sun 01:39:05 PM 33.8147 -83.2611 164° South 180 207 5,800 1,587 Climbing Atlanta Center
Sun 01:40:05 PM 33.7606 -83.2592 178° South 185 213 7,300 1,613 Climbing Atlanta Center
Sun 01:41:04 PM 33.7103 -83.2522 173° South 191 220 9,000 1,513 Climbing Atlanta Center
Sun 01:42:00 PM 33.6334 -83.1010 151° Southeast  Level Estimated
Sun 01:42:04 PM 33.6539 -83.2428 172° South 199 229 10,300  Level Atlanta Center
Sun 01:43:05 PM 33.6142 -83.2206 155° Southeast 192 221 12,000 1,700 Climbing Atlanta Center
Sun 01:44:04 PM 33.5636 -83.1811 147° Southeast 192 221 13,700 1,714 Climbing Atlanta Center
Sun 01:45:04 PM 33.5197 -83.1392 141° Southeast 204 235 15,400 1,550 Climbing Atlanta Center
Sun 01:46:04 PM 33.4714 -83.1100 153° Southeast 204 235 16,800 1,240 Climbing Atlanta Center
Sun 01:47:05 PM 33.4167 -83.0683 148° Southeast 204 235 17,900 1,050 Climbing Atlanta Center
Sun 01:48:04 PM 33.3664 -83.0289 147° Southeast 209 241 18,900 504 Climbing Atlanta Center
Sun 01:49:04 PM 33.3053 -82.9800 146° Southeast 235 270 18,900  Level Atlanta Center
Sun 01:50:04 PM 33.2403 -82.9311 148° Southeast 266 306 18,900 50 Level Atlanta Center
Sun 01:51:04 PM 33.1814 -82.8897 150° Southeast 275 316 19,000 50 Climbing Atlanta Center
Sun 01:52:04 PM 33.1183 -82.8408 147° Southeast 275 316 19,000  Level Atlanta Center
Sun 01:53:04 PM 33.0553 -82.7947 148° Southeast 275 316 19,000  Level Atlanta Center
Sun 01:54:04 PM 32.9922 -82.7508 150° Southeast 275 316 19,000  Level Atlanta Center
Sun 01:55:04 PM 32.9292 -82.7000 146° Southeast 275 316 19,000  Level Atlanta Center
Sun 01:56:04 PM 32.8617 -82.6467 146° Southeast 275 316 19,000  Level Atlanta Center
Sun 01:57:04 PM 32.7986 -82.6031 150° Southeast 275 316 19,000  Level Atlanta Center
Sun 01:58:04 PM 32.7375 -82.5547 146° Southeast 275 316 19,000  Level Atlanta Center
Sun 01:59:04 PM 32.6722 -82.5064 148° Southeast 275 316 19,000  Level Atlanta Center
Sun 02:00:04 PM 32.6111 -82.4606 148° Southeast 269 310 19,000  Level Atlanta Center
Sun 02:01:04 PM 32.5478 -82.4125 147° Southeast 269 310 19,000  Level Atlanta Center
Sun 02:03:32 PM 32.3947 -82.2997 148° Southeast 264 304 19,000  Level Jacksonville Center
Sun 02:04:32 PM 32.3383 -82.2558 147° Southeast 264 304 19,000  Level Jacksonville Center
Sun 02:05:32 PM 32.2692 -82.2069 149° Southeast 264 304 19,000  Level Jacksonville Center
Sun 02:06:32 PM 32.2061 -82.1608 148° Southeast 270 311 19,000  Level Jacksonville Center
Sun 02:07:32 PM 32.1494 -82.1197 148° Southeast 270 311 19,000  Level Jacksonville Center
Sun 02:08:32 PM 32.0825 -82.0686 147° Southeast 270 311 19,000  Level Jacksonville Center
Sun 02:09:32 PM 32.0236 -82.0275 149° Southeast 270 311 19,000  Level Jacksonville Center
Sun 02:10:32 PM 31.9544 -81.9769 148° Southeast 270 311 19,000  Level Jacksonville Center
Sun 02:11:32 PM 31.8914 -81.9286 147° Southeast 270 311 19,000 -100 Level Jacksonville Center
Sun 02:12:32 PM 31.8347 -81.8875 148° Southeast 270 311 18,800 -942 Descending Jacksonville Center
Sun 02:13:33 PM 31.7592 -81.8322 148° Southeast 287 330 17,100 -1,650 Descending Jacksonville Center
Sun 02:14:32 PM 31.6878 -81.7769 147° Southeast 304 350 15,500 -1,916 Descending Jacksonville Center
Sun 02:15:32 PM 31.6225 -81.7311 149° Southeast 304 350 13,300 -2,200 Descending Jacksonville Center
Sun 02:16:32 PM 31.5447 -81.6736 148° Southeast 299 344 11,100 -2,100 Descending Jacksonville Center
Sun 02:17:32 PM 31.4797 -81.6308 151° Southeast 299 344 9,100 -1,900 Descending Jacksonville Center
Sun 02:18:32 PM 31.4144 -81.5853 149° Southeast 289 333 7,300 -1,884 Descending Jacksonville Center
Sun 02:19:33 PM 31.3492 -81.5353 147° Southeast 269 310 5,300 -2,050 Descending Jacksonville Center
Sun 02:20:32 PM 31.2903 -81.4922 148° Southeast 257 296 3,200 -2,136 Descending Jacksonville Center

Login

Don't have an account? Register now (free) for customized features, flight alerts, and more!